createdAt,value
2022-08-03T00:00:54.341Z,24.18
2022-08-03T00:02:03.188Z,24.54
2022-08-03T00:03:14.406Z,24.45
2022-08-03T00:04:34.242Z,24.48
2022-08-03T00:06:03.997Z,24.27
2022-08-03T00:07:12.756Z,24.18
2022-08-03T00:08:20.852Z,23.97
2022-08-03T00:09:35.934Z,23.53
2022-08-03T00:10:47.118Z,23.48
2022-08-03T00:11:55.214Z,23.74
2022-08-03T00:13:03.667Z,23.65
2022-08-03T00:14:12.780Z,23.32
2022-08-03T00:15:24.319Z,23.22
2022-08-03T00:16:38.764Z,23.55
2022-08-03T00:17:52.340Z,23.82
2022-08-03T00:19:00.788Z,24.57
2022-08-03T00:20:11.032Z,24.57
2022-08-03T00:21:20.992Z,24.42
2022-08-03T00:22:34.162Z,24.20
2022-08-03T00:23:52.478Z,24.72
2022-08-03T00:25:11.976Z,24.49
2022-08-03T00:26:22.134Z,23.86
2022-08-03T00:27:34.162Z,24.15
2022-08-03T00:28:45.592Z,24.16
2022-08-03T00:29:59.547Z,24.34
2022-08-03T00:31:13.462Z,24.54
2022-08-03T00:32:24.809Z,24.29
2022-08-03T00:33:58.959Z,24.27
2022-08-03T00:35:11.337Z,24.23
2022-08-03T00:36:30.943Z,24.44
2022-08-03T00:37:40.641Z,24.79
2022-08-03T00:38:50.443Z,24.72
2022-08-03T00:40:00.620Z,24.83
2022-08-03T00:41:11.531Z,24.99
2022-08-03T00:42:28.689Z,25.04
2022-08-03T00:43:39.378Z,25.20
2022-08-03T00:44:48.093Z,25.26
2022-08-03T00:45:56.394Z,25.59
2022-08-03T00:47:06.588Z,25.84
2022-08-03T00:48:19.502Z,25.78
2022-08-03T00:49:44.655Z,25.77
2022-08-03T00:50:52.148Z,25.79
2022-08-03T00:52:09.323Z,25.63
2022-08-03T00:53:21.809Z,25.61
2022-08-03T00:54:32.219Z,25.76
2022-08-03T00:55:43.618Z,25.84
2022-08-03T00:56:59.770Z,25.95
2022-08-03T00:58:13.106Z,25.64
2022-08-03T00:59:23.004Z,26.04
2022-08-03T01:00:34.606Z,26.36
2022-08-03T01:01:45.653Z,26.63
2022-08-03T01:02:54.781Z,26.77
2022-08-03T01:04:05.344Z,26.86
2022-08-03T01:05:16.448Z,26.99
2022-08-03T01:06:46.492Z,27.19
2022-08-03T01:08:10.619Z,27.40
2022-08-03T01:09:54.920Z,27.64
2022-08-03T01:11:59.836Z,27.53
2022-08-03T01:14:04.067Z,27.57
2022-08-03T01:15:43.557Z,27.64
2022-08-03T01:17:27.174Z,27.61
2022-08-03T01:19:15.020Z,27.60
2022-08-03T01:20:24.600Z,27.76
2022-08-03T01:21:53.606Z,27.77
2022-08-03T01:23:24.519Z,27.78
2022-08-03T01:24:46.369Z,27.91
2022-08-03T01:26:18.205Z,27.92
2022-08-03T01:27:47.899Z,28.00
2022-08-03T01:29:33.467Z,27.93
2022-08-03T01:30:44.579Z,28.08
2022-08-03T01:32:58.245Z,28.13
2022-08-03T01:33:42.556Z,28.04
2022-08-03T01:35:06.384Z,28.07
2022-08-03T01:36:23.880Z,28.30
2022-08-03T01:37:57.312Z,28.55
2022-08-03T01:39:12.087Z,28.68
2022-08-03T01:40:22.625Z,28.74
2022-08-03T01:41:36.347Z,28.49
2022-08-03T01:42:47.720Z,29.06
2022-08-03T01:44:29.853Z,29.00
2022-08-03T01:45:28.809Z,29.05
2022-08-03T01:46:48.777Z,29.10
2022-08-03T01:47:57.048Z,29.32
2022-08-03T01:49:09.217Z,29.15
2022-08-03T01:50:26.924Z,29.04
2022-08-03T01:52:03.392Z,28.99
2022-08-03T01:53:04.858Z,29.14
2022-08-03T01:54:12.823Z,29.15
2022-08-03T01:55:21.608Z,29.60
2022-08-03T01:56:31.170Z,29.50
2022-08-03T01:58:05.937Z,29.25
2022-08-03T01:59:12.904Z,29.63
2022-08-03T02:00:21.510Z,30.04
2022-08-03T02:02:32.270Z,30.19
2022-08-03T02:03:05.896Z,30.16
2022-08-03T02:04:14.498Z,30.32
2022-08-03T02:05:23.292Z,30.56
2022-08-03T02:07:01.559Z,30.77
2022-08-03T02:08:10.708Z,31.03
2022-08-03T02:09:18.449Z,30.95
2022-08-03T02:10:34.874Z,30.90
2022-08-03T02:11:43.651Z,31.23
2022-08-03T02:12:53.327Z,31.27
2022-08-03T02:14:01.562Z,31.63
2022-08-03T02:15:10.647Z,31.79
2022-08-03T02:16:21.543Z,31.89
2022-08-03T02:17:39.000Z,32.07
2022-08-03T02:18:52.719Z,32.40
2022-08-03T02:20:01.568Z,32.19
2022-08-03T02:21:11.126Z,32.72
2022-08-03T02:22:18.699Z,33.01
2022-08-03T02:23:27.209Z,33.35
2022-08-03T02:24:38.025Z,33.75
2022-08-03T02:25:52.685Z,34.18
2022-08-03T02:27:01.227Z,34.63
2022-08-03T02:28:09.265Z,34.69
2022-08-03T02:29:21.244Z,34.84
2022-08-03T02:30:53.969Z,34.81
2022-08-03T02:32:13.323Z,34.89
2022-08-03T02:33:34.289Z,34.86
2022-08-03T02:34:44.056Z,35.16
2022-08-03T02:35:52.814Z,35.38
2022-08-03T02:37:01.715Z,35.83
2022-08-03T02:38:10.473Z,36.43
2022-08-03T02:39:22.531Z,36.94
2022-08-03T02:40:33.507Z,37.25
2022-08-03T02:41:48.198Z,37.26
2022-08-03T02:42:57.146Z,37.81
2022-08-03T02:44:09.442Z,37.90
2022-08-03T02:45:17.425Z,37.92
2022-08-03T02:46:31.345Z,38.09
2022-08-03T02:47:54.132Z,38.06
2022-08-03T02:49:41.420Z,37.89
2022-08-03T02:50:34.693Z,38.08
2022-08-03T02:51:42.428Z,38.27
2022-08-03T02:52:53.562Z,38.19
2022-08-03T02:54:03.925Z,37.84
2022-08-03T02:55:12.922Z,37.99
2022-08-03T02:56:20.979Z,38.18
2022-08-03T02:57:29.854Z,38.73
2022-08-03T02:58:37.279Z,38.74
2022-08-03T02:59:44.887Z,38.59
2022-08-03T03:00:53.651Z,38.70
2022-08-03T03:02:02.701Z,38.58
2022-08-03T03:03:12.694Z,38.63
2022-08-03T03:04:21.066Z,38.77
2022-08-03T03:05:54.745Z,38.94
2022-08-03T03:07:06.566Z,39.05
2022-08-03T03:08:26.176Z,39.09
2022-08-03T03:09:43.221Z,39.14
2022-08-03T03:10:53.215Z,39.49
2022-08-03T03:12:04.345Z,39.39
2022-08-03T03:13:17.125Z,39.62
2022-08-03T03:14:33.672Z,39.68
2022-08-03T03:15:44.259Z,39.44
2022-08-03T03:16:57.689Z,38.77
2022-08-03T03:18:08.385Z,38.28
2022-08-03T03:19:18.079Z,38.23
2022-08-03T03:20:29.556Z,39.00
2022-08-03T03:21:44.386Z,39.20
2022-08-03T03:22:55.037Z,39.46
2022-08-03T03:24:06.856Z,39.66
2022-08-03T03:25:18.399Z,39.77
2022-08-03T03:26:29.873Z,40.39
2022-08-03T03:27:41.881Z,40.57
2022-08-03T03:28:57.907Z,40.55
2022-08-03T03:30:07.790Z,40.36
2022-08-03T03:31:18.737Z,40.16
2022-08-03T03:32:28.325Z,40.05
2022-08-03T03:33:38.103Z,40.26
2022-08-03T03:34:49.230Z,40.56
2022-08-03T03:36:01.207Z,40.72
2022-08-03T03:37:10.091Z,40.67
2022-08-03T03:38:18.363Z,41.02
2022-08-03T03:39:29.285Z,41.34
2022-08-03T03:40:44.176Z,41.43
2022-08-03T03:41:52.374Z,41.22
2022-08-03T03:43:04.118Z,41.68
2022-08-03T03:44:12.664Z,41.62
2022-08-03T03:45:21.256Z,41.74
2022-08-03T03:46:30.392Z,41.98
2022-08-03T03:47:39.267Z,42.14
2022-08-03T03:48:49.525Z,42.06
2022-08-03T03:49:59.509Z,42.33
2022-08-03T03:51:09.426Z,42.37
2022-08-03T03:52:19.327Z,42.92
2022-08-03T03:53:28.011Z,43.21
2022-08-03T03:54:47.692Z,43.46
2022-08-03T03:56:02.099Z,43.22
2022-08-03T03:57:13.791Z,43.44
2022-08-03T03:58:22.915Z,43.67
2022-08-03T03:59:36.060Z,43.93
2022-08-03T04:00:46.270Z,43.95
2022-08-03T04:01:58.901Z,44.23
2022-08-03T04:03:07.503Z,44.51
2022-08-03T04:04:38.172Z,44.33
2022-08-03T04:06:08.389Z,44.48
2022-08-03T04:07:39.404Z,44.69
2022-08-03T04:09:05.830Z,45.08
2022-08-03T04:10:38.106Z,45.11
2022-08-03T04:11:52.921Z,45.15
2022-08-03T04:13:02.751Z,45.26
2022-08-03T04:14:30.014Z,45.43
2022-08-03T04:15:39.808Z,45.53
2022-08-03T04:16:59.887Z,45.54
2022-08-03T04:18:07.166Z,45.67
2022-08-03T04:19:22.926Z,45.66
2022-08-03T04:20:34.552Z,45.52
2022-08-03T04:21:45.426Z,45.64
2022-08-03T04:22:55.749Z,45.66
2022-08-03T04:24:07.519Z,45.65
2022-08-03T04:25:20.460Z,45.34
2022-08-03T04:26:34.374Z,45.07
2022-08-03T04:27:44.482Z,44.99
2022-08-03T04:29:16.245Z,45.03
2022-08-03T04:30:24.712Z,44.93
2022-08-03T04:31:32.713Z,44.58
2022-08-03T04:32:45.942Z,44.32
2022-08-03T04:33:55.718Z,44.25
2022-08-03T04:35:04.310Z,44.22
2022-08-03T04:36:14.444Z,43.87
2022-08-03T04:37:47.575Z,43.90
2022-08-03T04:38:59.112Z,43.62
2022-08-03T04:40:09.643Z,43.28
2022-08-03T04:41:20.413Z,43.29
2022-08-03T04:42:32.275Z,43.06
2022-08-03T04:43:42.624Z,42.85
2022-08-03T04:44:51.284Z,42.57
2022-08-03T04:45:59.301Z,42.37
2022-08-03T04:47:07.315Z,42.13
2022-08-03T04:48:17.557Z,41.45
2022-08-03T04:49:27.046Z,40.82
2022-08-03T04:50:36.705Z,40.60
2022-08-03T04:51:46.370Z,39.72
2022-08-03T04:52:54.086Z,39.73
2022-08-03T04:54:02.830Z,38.89
2022-08-03T04:55:13.411Z,38.58
2022-08-03T04:56:22.926Z,38.42
2022-08-03T04:57:32.520Z,38.85
2022-08-03T04:58:40.726Z,39.15
2022-08-03T04:59:58.199Z,39.40
2022-08-03T05:01:11.497Z,39.61
2022-08-03T05:02:20.839Z,39.78
2022-08-03T05:03:28.306Z,39.81
2022-08-03T05:04:38.175Z,40.00
2022-08-03T05:05:49.931Z,40.19
2022-08-03T05:07:12.354Z,40.41
2022-08-03T05:08:28.244Z,40.72
2022-08-03T05:09:50.186Z,40.96
2022-08-03T05:11:02.592Z,41.09
2022-08-03T05:12:13.703Z,41.19
2022-08-03T05:13:22.329Z,41.28
2022-08-03T05:14:30.683Z,41.56
2022-08-03T05:15:43.012Z,41.61
2022-08-03T05:16:54.092Z,41.60
2022-08-03T05:18:02.079Z,41.70
2022-08-03T05:19:10.468Z,41.83
2022-08-03T05:20:23.994Z,41.86
2022-08-03T05:21:52.073Z,41.82
2022-08-03T05:23:06.013Z,42.00
2022-08-03T05:24:14.713Z,42.29
2022-08-03T05:25:27.343Z,42.29
2022-08-03T05:26:36.540Z,42.13
2022-08-03T05:27:45.316Z,42.13
2022-08-03T05:28:54.906Z,42.19
2022-08-03T05:30:29.806Z,42.18
2022-08-03T05:31:34.513Z,42.23
2022-08-03T05:32:46.194Z,42.28
2022-08-03T05:33:54.749Z,42.41
2022-08-03T05:35:58.005Z,42.68
2022-08-03T05:36:41.338Z,42.93
2022-08-03T05:37:54.966Z,42.90
2022-08-03T05:39:04.574Z,43.06
2022-08-03T05:40:16.130Z,43.42
2022-08-03T05:41:37.215Z,44.74
2022-08-03T05:42:49.686Z,45.20
2022-08-03T05:43:59.536Z,45.74
2022-08-03T05:45:20.124Z,46.10
2022-08-03T05:46:28.499Z,46.14
2022-08-03T05:47:41.517Z,46.40
2022-08-03T05:48:50.369Z,46.47
2022-08-03T05:50:00.632Z,46.48
2022-08-03T05:51:13.021Z,46.46
2022-08-03T05:52:21.805Z,46.51
2022-08-03T05:53:30.164Z,46.52
2022-08-03T05:54:56.794Z,46.34
2022-08-03T05:56:14.119Z,46.32
2022-08-03T05:57:24.789Z,46.32
2022-08-03T05:58:33.552Z,46.17
2022-08-03T05:59:54.675Z,46.16
2022-08-03T06:01:09.009Z,46.23
2022-08-03T06:02:20.186Z,46.17
2022-08-03T06:03:29.670Z,46.28
2022-08-03T06:04:38.515Z,46.11
2022-08-03T06:05:54.976Z,46.17
2022-08-03T06:07:09.346Z,46.39
2022-08-03T06:08:17.939Z,46.27
2022-08-03T06:09:25.934Z,46.36
2022-08-03T06:10:57.323Z,46.32
2022-08-03T06:12:05.579Z,46.58
2022-08-03T06:13:14.490Z,46.43
2022-08-03T06:14:22.837Z,46.49
2022-08-03T06:15:33.154Z,46.70
2022-08-03T06:16:48.453Z,46.75
2022-08-03T06:18:01.986Z,46.75
2022-08-03T06:19:11.592Z,46.68
2022-08-03T06:20:21.273Z,46.72
2022-08-03T06:21:38.379Z,46.79
2022-08-03T06:22:50.916Z,46.77
2022-08-03T06:24:10.241Z,46.88
2022-08-03T06:25:21.565Z,46.99
2022-08-03T06:26:29.848Z,46.99
2022-08-03T06:27:42.004Z,47.28
2022-08-03T06:28:53.485Z,47.50
2022-08-03T06:30:04.644Z,47.43
2022-08-03T06:31:18.524Z,47.38
2022-08-03T06:32:29.515Z,47.83
2022-08-03T06:34:30.123Z,47.95
2022-08-03T06:35:09.769Z,48.30
2022-08-03T06:36:19.393Z,48.50
2022-08-03T06:37:28.667Z,48.65
2022-08-03T06:38:40.136Z,48.74
2022-08-03T06:39:49.214Z,49.08
2022-08-03T06:40:57.697Z,49.00
2022-08-03T06:42:06.445Z,49.17
2022-08-03T06:43:19.962Z,49.38
2022-08-03T06:44:28.406Z,49.55
2022-08-03T06:45:38.618Z,49.41
2022-08-03T06:46:47.655Z,49.44
2022-08-03T06:48:08.988Z,49.53
2022-08-03T06:49:16.345Z,49.52
2022-08-03T06:50:26.242Z,49.38
2022-08-03T06:52:04.259Z,49.38
2022-08-03T06:53:04.305Z,49.22
2022-08-03T06:54:11.727Z,49.21
2022-08-03T06:55:20.260Z,49.29
2022-08-03T06:56:30.188Z,49.32
2022-08-03T06:57:39.833Z,49.30
2022-08-03T06:58:51.948Z,49.49
2022-08-03T07:00:08.022Z,49.60
2022-08-03T07:01:22.147Z,49.73
2022-08-03T07:02:31.868Z,49.87
2022-08-03T07:03:52.356Z,49.97
2022-08-03T07:05:00.987Z,50.00
2022-08-03T07:06:09.491Z,50.04
2022-08-03T07:07:19.626Z,50.22
2022-08-03T07:08:33.853Z,50.20
2022-08-03T07:09:55.741Z,50.07
2022-08-03T07:11:06.671Z,50.03
2022-08-03T07:12:17.343Z,50.09
2022-08-03T07:13:26.049Z,50.30
2022-08-03T07:14:34.184Z,50.22
2022-08-03T07:15:55.603Z,50.49
2022-08-03T07:17:11.448Z,50.29
2022-08-03T07:18:29.640Z,50.29
2022-08-03T07:19:42.675Z,50.84
2022-08-03T07:20:52.130Z,50.97
2022-08-03T07:22:02.167Z,51.21
2022-08-03T07:23:19.221Z,51.20
2022-08-03T07:24:30.489Z,51.46
2022-08-03T07:25:38.705Z,51.38
2022-08-03T07:26:49.122Z,51.09
2022-08-03T07:27:56.385Z,50.95
2022-08-03T07:29:04.376Z,51.11
2022-08-03T07:30:23.163Z,51.50
2022-08-03T07:31:34.475Z,51.72
2022-08-03T07:32:50.171Z,51.46
2022-08-03T07:34:03.442Z,51.60
2022-08-03T07:35:24.864Z,52.16
2022-08-03T07:36:34.249Z,52.53
2022-08-03T07:37:41.839Z,52.55
2022-08-03T07:39:17.455Z,52.21
2022-08-03T07:40:30.743Z,52.08
2022-08-03T07:41:39.615Z,51.89
2022-08-03T07:42:52.167Z,52.14
2022-08-03T07:44:01.578Z,52.39
2022-08-03T07:45:16.595Z,52.50
2022-08-03T07:46:28.016Z,52.53
2022-08-03T07:47:36.576Z,52.29
2022-08-03T07:48:43.974Z,52.32
2022-08-03T07:49:51.256Z,52.49
2022-08-03T07:51:01.517Z,52.53
2022-08-03T07:52:29.970Z,52.58
2022-08-03T07:53:47.203Z,52.93
2022-08-03T07:54:55.986Z,53.07
2022-08-03T07:56:04.291Z,53.23
2022-08-03T07:57:21.960Z,53.14
2022-08-03T07:58:30.541Z,53.31
2022-08-03T07:59:56.681Z,53.23
2022-08-03T08:01:08.707Z,53.21
2022-08-03T08:02:19.467Z,53.23
2022-08-03T08:03:30.208Z,53.14
2022-08-03T08:05:01.058Z,53.45
2022-08-03T08:06:13.281Z,53.67
2022-08-03T08:07:20.654Z,54.09
2022-08-03T08:08:27.944Z,54.44
2022-08-03T08:09:35.822Z,54.45
2022-08-03T08:10:58.001Z,54.43
2022-08-03T08:12:15.360Z,54.53
2022-08-03T08:13:24.431Z,54.03
2022-08-03T08:14:32.651Z,53.91
2022-08-03T08:15:42.797Z,54.11
2022-08-03T08:16:56.406Z,54.21
2022-08-03T08:18:04.108Z,54.96
2022-08-03T08:19:11.560Z,55.53
2022-08-03T08:20:30.692Z,55.62
2022-08-03T08:22:02.052Z,55.94
2022-08-03T08:23:32.614Z,55.90
2022-08-03T08:24:38.239Z,55.64
2022-08-03T08:25:47.465Z,55.68
2022-08-03T08:26:55.561Z,55.87
2022-08-03T08:28:29.459Z,56.18
2022-08-03T08:29:37.197Z,56.52
2022-08-03T08:30:58.979Z,56.67
2022-08-03T08:32:09.323Z,56.61
2022-08-03T08:33:23.179Z,56.72
2022-08-03T08:34:39.761Z,56.39
2022-08-03T08:35:50.517Z,56.26
2022-08-03T08:36:58.849Z,56.78
2022-08-03T08:38:07.998Z,56.95
2022-08-03T08:39:19.269Z,57.06
2022-08-03T08:40:30.887Z,57.47
2022-08-03T08:41:38.761Z,57.80
2022-08-03T08:42:58.761Z,57.85
2022-08-03T08:44:09.555Z,57.84
2022-08-03T08:45:17.152Z,57.74
2022-08-03T08:46:25.851Z,57.36
2022-08-03T08:47:51.441Z,57.36
2022-08-03T08:49:00.326Z,57.26
2022-08-03T08:50:27.243Z,57.33
2022-08-03T08:51:54.518Z,57.60
2022-08-03T08:53:06.968Z,57.81
2022-08-03T08:54:19.523Z,58.09
2022-08-03T08:55:27.531Z,57.98
2022-08-03T08:56:36.236Z,57.82
2022-08-03T08:57:51.314Z,57.73
2022-08-03T08:59:02.508Z,57.85
2022-08-03T09:00:14.324Z,57.93
2022-08-03T09:01:23.498Z,58.28
2022-08-03T09:02:33.759Z,58.01
2022-08-03T09:03:42.235Z,57.98
2022-08-03T09:04:53.656Z,57.89
2022-08-03T09:06:02.660Z,57.82
2022-08-03T09:07:20.129Z,58.13
2022-08-03T09:08:32.896Z,58.56
2022-08-03T09:10:10.427Z,58.46
2022-08-03T09:11:14.322Z,58.25
2022-08-03T09:12:41.231Z,58.37
2022-08-03T09:13:53.981Z,58.48
2022-08-03T09:15:20.808Z,58.90
2022-08-03T09:16:27.713Z,59.36
2022-08-03T09:17:46.512Z,59.77
2022-08-03T09:18:58.792Z,60.02
2022-08-03T09:20:10.516Z,59.92
2022-08-03T09:21:33.882Z,59.54
2022-08-03T09:23:01.748Z,59.18
2022-08-03T09:24:20.646Z,59.01
2022-08-03T09:25:41.910Z,59.19
2022-08-03T09:26:53.755Z,59.02
2022-08-03T09:29:00.519Z,58.91
2022-08-03T09:30:32.193Z,58.92
2022-08-03T09:31:48.176Z,59.10
2022-08-03T09:33:02.973Z,58.95
2022-08-03T09:34:12.759Z,58.82
2022-08-03T09:35:33.146Z,58.78
2022-08-03T09:36:50.970Z,58.83
2022-08-03T09:38:17.246Z,58.76
2022-08-03T09:39:40.705Z,58.95
2022-08-03T09:41:00.229Z,59.07
2022-08-03T09:42:11.014Z,59.61
2022-08-03T09:43:22.403Z,60.08
2022-08-03T09:44:43.433Z,60.31
2022-08-03T09:45:54.306Z,60.51
2022-08-03T09:47:01.267Z,60.35
2022-08-03T09:48:30.912Z,60.35
2022-08-03T09:49:42.815Z,60.26
2022-08-03T09:51:12.991Z,60.13
2022-08-03T09:52:37.654Z,60.14
2022-08-03T09:53:59.530Z,59.87
2022-08-03T09:55:23.692Z,60.21
2022-08-03T09:56:45.177Z,59.77
2022-08-03T09:57:53.147Z,59.82
2022-08-03T09:59:03.093Z,59.94
2022-08-03T10:00:13.847Z,60.03
2022-08-03T10:01:24.509Z,59.99
2022-08-03T10:02:36.086Z,59.93
2022-08-03T10:04:04.389Z,60.01
2022-08-03T10:05:17.700Z,60.36
2022-08-03T10:06:32.568Z,60.27
2022-08-03T10:07:53.953Z,60.13
2022-08-03T10:09:18.392Z,60.27
2022-08-03T10:10:31.407Z,60.59
2022-08-03T10:11:42.009Z,60.74
2022-08-03T10:12:51.915Z,60.88
2022-08-03T10:14:01.452Z,60.88
2022-08-03T10:16:23.290Z,60.68
2022-08-03T10:16:44.149Z,60.66
2022-08-03T10:17:54.104Z,60.47
2022-08-03T10:19:01.887Z,60.25
2022-08-03T10:20:16.636Z,59.99
2022-08-03T10:21:27.614Z,60.02
2022-08-03T10:22:38.522Z,59.85
2022-08-03T10:23:48.556Z,59.80
2022-08-03T10:25:20.195Z,59.63
2022-08-03T10:26:28.781Z,59.76
2022-08-03T10:27:38.536Z,59.89
2022-08-03T10:28:52.384Z,59.87
2022-08-03T10:30:11.054Z,60.02
2022-08-03T10:31:19.774Z,60.22
2022-08-03T10:32:50.565Z,60.30
2022-08-03T10:33:57.819Z,60.45
2022-08-03T10:35:31.646Z,60.65
2022-08-03T10:36:44.117Z,60.61
2022-08-03T10:38:03.124Z,60.41
2022-08-03T10:39:16.436Z,60.43
2022-08-03T10:40:47.570Z,60.33
2022-08-03T10:41:53.767Z,60.32
2022-08-03T10:43:10.223Z,60.56
2022-08-03T10:44:21.389Z,60.51
2022-08-03T10:45:29.533Z,60.49
2022-08-03T10:46:44.146Z,60.61
2022-08-03T10:47:54.119Z,60.58
2022-08-03T10:49:02.192Z,60.55
2022-08-03T10:50:10.459Z,60.48
2022-08-03T10:51:19.073Z,60.31
2022-08-03T10:52:31.818Z,60.35
2022-08-03T10:53:54.170Z,60.60
2022-08-03T10:55:23.461Z,60.75
2022-08-03T10:56:54.380Z,60.95
2022-08-03T10:58:01.975Z,61.13
2022-08-03T10:59:12.248Z,61.01
2022-08-03T11:00:26.346Z,61.07
2022-08-03T11:02:03.468Z,61.02
2022-08-03T11:03:15.635Z,60.88
2022-08-03T11:04:23.308Z,60.68
2022-08-03T11:05:57.937Z,60.68
2022-08-03T11:07:25.135Z,60.70
2022-08-03T11:08:36.879Z,60.90
2022-08-03T11:09:50.122Z,60.85
2022-08-03T11:11:32.354Z,60.89
2022-08-03T11:12:40.834Z,61.15
2022-08-03T11:14:06.240Z,61.34
2022-08-03T11:15:13.567Z,61.24
2022-08-03T11:16:24.787Z,61.51
2022-08-03T11:17:46.150Z,61.55
2022-08-03T11:19:04.325Z,61.37
2022-08-03T11:20:12.032Z,61.25
2022-08-03T11:21:21.111Z,61.13
2022-08-03T11:22:30.179Z,61.08
2022-08-03T11:24:05.045Z,61.39
2022-08-03T11:25:53.099Z,61.38
2022-08-03T11:26:45.357Z,61.41
2022-08-03T11:27:52.993Z,61.28
2022-08-03T11:29:40.710Z,61.20
2022-08-03T11:30:48.079Z,61.41
2022-08-03T11:31:55.961Z,61.49
2022-08-03T11:33:03.876Z,61.75
2022-08-03T11:34:11.765Z,61.58
2022-08-03T11:35:32.192Z,61.60
2022-08-03T11:37:27.459Z,61.55
2022-08-03T11:39:05.909Z,61.37
2022-08-03T11:40:13.277Z,61.36
2022-08-03T11:41:45.269Z,61.44
2022-08-03T11:42:53.563Z,61.53
2022-08-03T11:44:00.609Z,61.72
2022-08-03T11:45:10.380Z,61.76
2022-08-03T11:46:28.701Z,61.88
2022-08-03T11:47:50.894Z,62.00
2022-08-03T11:49:10.936Z,61.91
2022-08-03T11:50:20.288Z,62.15
2022-08-03T11:51:29.173Z,62.49
2022-08-03T11:52:43.928Z,62.62
2022-08-03T11:53:56.158Z,62.94
2022-08-03T11:55:03.523Z,62.98
2022-08-03T11:56:12.868Z,62.87
2022-08-03T11:59:15.374Z,62.75
2022-08-03T11:59:20.595Z,62.50
2022-08-03T12:00:35.938Z,62.40
2022-08-03T12:01:44.626Z,62.44
2022-08-03T12:03:11.231Z,62.35
2022-08-03T12:04:19.819Z,62.25
2022-08-03T12:05:54.759Z,62.03
2022-08-03T12:07:06.131Z,61.99
2022-08-03T12:08:15.330Z,61.97
2022-08-03T12:09:23.677Z,62.06
2022-08-03T12:10:31.743Z,62.12
2022-08-03T12:11:39.915Z,62.29
2022-08-03T12:14:26.893Z,62.27
2022-08-03T12:14:48.419Z,62.35
2022-08-03T12:16:04.926Z,62.41
2022-08-03T12:17:12.780Z,62.92
2022-08-03T12:18:20.425Z,63.21
2022-08-03T12:19:30.416Z,62.96
2022-08-03T12:20:37.541Z,62.99
2022-08-03T12:21:57.292Z,63.18
2022-08-03T12:23:12.975Z,63.63
2022-08-03T12:24:20.186Z,63.93
2022-08-03T12:25:39.636Z,64.30
2022-08-03T12:26:59.131Z,64.90
2022-08-03T12:28:36.231Z,65.30
2022-08-03T12:29:58.470Z,65.31
2022-08-03T12:31:11.098Z,65.46
2022-08-03T12:32:21.585Z,65.42
2022-08-03T12:33:29.573Z,65.52
2022-08-03T12:34:49.425Z,65.81
2022-08-03T12:36:12.607Z,65.87
2022-08-03T12:37:28.822Z,66.04
2022-08-03T12:38:39.508Z,65.94
2022-08-03T12:40:01.685Z,65.90
2022-08-03T12:41:17.389Z,65.79
2022-08-03T12:42:31.604Z,65.67
2022-08-03T12:43:39.901Z,65.67
2022-08-03T12:44:56.291Z,65.49
2022-08-03T12:46:18.635Z,65.55
2022-08-03T12:47:26.649Z,65.42
2022-08-03T12:48:37.646Z,65.32
2022-08-03T12:49:55.057Z,65.47
2022-08-03T12:51:17.402Z,65.38
2022-08-03T12:52:25.308Z,65.57
2022-08-03T12:53:33.496Z,65.65
2022-08-03T12:54:41.870Z,65.71
2022-08-03T12:56:04.543Z,65.65
2022-08-03T12:57:16.799Z,65.85
2022-08-03T13:00:21.605Z,66.17
2022-08-03T13:01:55.203Z,66.38
2022-08-03T13:03:39.363Z,66.67
2022-08-03T13:04:40.475Z,66.91
2022-08-03T13:05:48.542Z,67.21
2022-08-03T13:07:06.483Z,67.21
2022-08-03T13:08:26.461Z,67.22
2022-08-03T13:09:45.624Z,67.31
2022-08-03T13:10:57.151Z,67.23
2022-08-03T13:12:16.917Z,67.16
2022-08-03T13:13:42.840Z,67.38
2022-08-03T13:14:53.421Z,67.69
2022-08-03T13:16:01.552Z,67.75
2022-08-03T13:17:13.768Z,67.71
2022-08-03T13:18:21.691Z,67.68
2022-08-03T13:19:29.440Z,67.50
2022-08-03T13:20:41.626Z,67.55
2022-08-03T13:21:53.406Z,67.53
2022-08-03T13:23:22.358Z,67.48
2022-08-03T13:24:32.319Z,67.63
2022-08-03T13:25:40.477Z,67.78
2022-08-03T13:28:12.395Z,67.88
2022-08-03T13:28:39.261Z,67.82
2022-08-03T13:29:47.325Z,67.75
2022-08-03T13:30:56.103Z,67.59
2022-08-03T13:32:06.463Z,67.38
2022-08-03T13:33:14.887Z,67.18
2022-08-03T13:34:24.115Z,67.00
2022-08-03T13:35:31.967Z,66.68
2022-08-03T13:37:07.508Z,66.47
2022-08-03T13:38:11.211Z,66.29
2022-08-03T13:39:18.547Z,66.15
2022-08-03T13:40:30.791Z,66.17
2022-08-03T13:41:44.112Z,66.10
2022-08-03T13:42:53.061Z,65.76
2022-08-03T13:44:25.421Z,65.46
2022-08-03T13:45:31.568Z,65.06
2022-08-03T13:46:41.786Z,64.66
2022-08-03T13:47:50.146Z,64.35
2022-08-03T13:49:01.226Z,63.65
2022-08-03T13:50:11.664Z,63.18
2022-08-03T13:51:22.166Z,62.76
2022-08-03T13:52:34.636Z,62.70
2022-08-03T13:53:43.080Z,62.66
2022-08-03T13:54:51.364Z,62.60
2022-08-03T13:56:01.983Z,62.25
2022-08-03T13:58:04.434Z,62.03
2022-08-03T13:58:41.866Z,61.44
2022-08-03T13:59:52.448Z,61.01
2022-08-03T14:00:59.653Z,60.42
2022-08-03T14:02:09.715Z,59.79
2022-08-03T14:03:20.103Z,59.25
2022-08-03T14:04:28.233Z,58.69
2022-08-03T14:05:37.179Z,58.25
2022-08-03T14:06:48.647Z,58.07
2022-08-03T14:07:56.849Z,57.30
2022-08-03T14:09:12.298Z,56.58
2022-08-03T14:10:21.230Z,56.43
2022-08-03T14:12:07.133Z,56.44
2022-08-03T14:13:02.417Z,56.53
2022-08-03T14:14:10.357Z,56.32
2022-08-03T14:15:18.756Z,56.28
2022-08-03T14:16:27.469Z,56.24
2022-08-03T14:17:42.198Z,56.31
2022-08-03T14:19:01.796Z,56.41
2022-08-03T14:20:36.498Z,56.43
2022-08-03T14:21:52.718Z,56.37
2022-08-03T14:23:14.762Z,56.14
2022-08-03T14:24:22.911Z,55.57
2022-08-03T14:25:44.335Z,54.87
2022-08-03T14:27:08.662Z,54.32
2022-08-03T14:28:18.619Z,54.26
2022-08-03T14:29:25.604Z,53.71
2022-08-03T14:30:33.601Z,53.64
2022-08-03T14:32:11.895Z,53.06
2022-08-03T14:33:09.284Z,52.62
2022-08-03T14:34:16.466Z,51.92
2022-08-03T14:35:24.280Z,51.85
2022-08-03T14:36:32.298Z,51.27
2022-08-03T14:37:39.764Z,50.54
2022-08-03T14:38:47.989Z,50.07
2022-08-03T14:40:00.435Z,50.08
2022-08-03T14:41:12.216Z,49.95
2022-08-03T14:42:28.346Z,49.56
2022-08-03T14:43:36.135Z,48.98
2022-08-03T14:44:45.043Z,48.05
2022-08-03T14:45:55.149Z,48.07
2022-08-03T14:47:03.267Z,48.35
2022-08-03T14:50:34.711Z,47.63
2022-08-03T14:50:37.134Z,47.79
2022-08-03T14:51:10.555Z,47.88
2022-08-03T14:52:18.147Z,47.72
2022-08-03T14:53:26.633Z,47.76
2022-08-03T14:54:33.815Z,47.90
2022-08-03T14:55:50.530Z,47.64
2022-08-03T14:57:02.244Z,47.48
2022-08-03T14:58:20.738Z,47.06
2022-08-03T14:59:55.965Z,46.91
2022-08-03T15:01:02.657Z,46.69
2022-08-03T15:02:21.267Z,46.80
2022-08-03T15:03:33.394Z,47.14
2022-08-03T15:04:41.362Z,46.93
2022-08-03T15:05:56.247Z,46.69
2022-08-03T15:07:07.379Z,46.38
2022-08-03T15:08:17.937Z,46.03
2022-08-03T15:09:26.149Z,45.78
2022-08-03T15:10:44.370Z,45.87
2022-08-03T15:11:54.727Z,45.80
2022-08-03T15:13:04.953Z,45.62
2022-08-03T15:14:15.952Z,45.42
2022-08-03T15:15:24.253Z,45.79
2022-08-03T15:16:33.286Z,45.82
2022-08-03T15:17:59.654Z,45.66
2022-08-03T15:20:00.464Z,45.25
2022-08-03T15:20:46.975Z,45.22
2022-08-03T15:21:56.904Z,45.14
2022-08-03T15:23:09.191Z,44.74
2022-08-03T15:24:17.848Z,44.72
2022-08-03T15:26:03.722Z,44.36
2022-08-03T15:26:57.972Z,44.15
2022-08-03T15:28:06.737Z,44.06
2022-08-03T15:30:08.144Z,43.70
2022-08-03T15:30:44.834Z,42.67
2022-08-03T15:31:54.169Z,40.64
2022-08-03T15:33:01.862Z,40.41
2022-08-03T15:34:10.061Z,39.65
2022-08-03T15:35:19.492Z,39.26
2022-08-03T15:36:27.869Z,38.64
2022-08-03T15:37:35.967Z,38.14
2022-08-03T15:38:44.947Z,37.77
2022-08-03T15:39:59.831Z,37.70
2022-08-03T15:41:13.522Z,37.22
2022-08-03T15:42:22.742Z,36.48
2022-08-03T15:43:33.391Z,35.96
2022-08-03T15:44:49.478Z,36.77
2022-08-03T15:46:27.779Z,36.99
2022-08-03T15:47:29.479Z,37.40
2022-08-03T15:48:41.040Z,37.18
2022-08-03T15:49:53.325Z,36.70
2022-08-03T15:51:01.408Z,36.55
2022-08-03T15:52:09.886Z,36.96
2022-08-03T15:53:20.600Z,36.98
2022-08-03T15:54:29.213Z,36.84
2022-08-03T15:55:40.538Z,35.97
2022-08-03T15:56:50.015Z,35.35
2022-08-03T15:59:09.330Z,35.35
2022-08-03T15:59:30.308Z,35.02
2022-08-03T16:00:40.094Z,34.71
2022-08-03T16:01:50.228Z,33.34
2022-08-03T16:03:01.922Z,33.17